FIN7FG LPPT-EFHK
Flight info
| Callsign | FIN7FG |
|---|---|
| Flight time | N/A |
| Altitude | 34000 |
| Route | IXIDA DCT PINOX DCT RIVRO DCT TOSDI DCT ZMR DCT NUBLO DCT RONSI DCT DELOG DCT DIDIG DCT USODA DCT ERCUT DCT DITAL DCT ELCOB DCT PODEM DCT BAZOS DCT BELDI/N0456F350 DCT VICOT DCT DOSUR DCT UMIXA DCT LUPET DCT RIRIP Y364 LAKUT |
| Aircraft | A321/M-SDE3FGHIRWY/LB1 |
Departure
| Time | 2026-04-28 11:00 |
|---|---|
| Airport | Lisbon Humberto Delgado Airport (LPPT) |
Arrival
| Time | N/A |
|---|---|
| Airport | Helsinki Vantaa Airport (EFHK) |
| Time | Latitude | Longitude | Altitude | Speed | Heading |
|---|---|---|---|---|---|
| 2026-04-28 10:44 | 38.76598 | -9.13414 | 345 ft | 0 kts | 73° |
| 2026-04-28 10:47 | 38.76593 | -9.13434 | 350 ft | 4 kts | 64° |
| 2026-04-28 10:47 | 38.76578 | -9.13459 | 355 ft | 4 kts | 20° |
| 2026-04-28 10:47 | 38.76563 | -9.13461 | 353 ft | 0 kts | 343° |
| 2026-04-28 10:50 | 38.76579 | -9.13467 | 356 ft | 4 kts | 343° |
| 2026-04-28 10:50 | 38.76611 | -9.13478 | 350 ft | 5 kts | 349° |
| 2026-04-28 10:50 | 38.76671 | -9.13447 | 350 ft | 16 kts | 33° |
| 2026-04-28 10:51 | 38.76779 | -9.13368 | 352 ft | 18 kts | 11° |
| 2026-04-28 10:51 | 38.76906 | -9.13397 | 343 ft | 19 kts | 348° |
| 2026-04-28 10:51 | 38.77032 | -9.13430 | 345 ft | 18 kts | 348° |
| 2026-04-28 10:51 | 38.77152 | -9.13463 | 346 ft | 18 kts | 347° |
| 2026-04-28 10:52 | 38.77271 | -9.13495 | 350 ft | 17 kts | 348° |
| 2026-04-28 10:52 | 38.77393 | -9.13528 | 357 ft | 19 kts | 348° |
| 2026-04-28 10:52 | 38.77507 | -9.13558 | 349 ft | 9 kts | 348° |
| 2026-04-28 10:52 | 38.77565 | -9.13574 | 351 ft | 8 kts | 348° |
| 2026-04-28 10:53 | 38.77570 | -9.13575 | 353 ft | 0 kts | 348° |
| 2026-04-28 10:54 | 38.77576 | -9.13577 | 352 ft | 5 kts | 348° |
| 2026-04-28 10:55 | 38.77656 | -9.13597 | 360 ft | 14 kts | 349° |
| 2026-04-28 10:55 | 38.77738 | -9.13574 | 358 ft | 10 kts | 22° |
| 2026-04-28 10:55 | 38.77743 | -9.13571 | 362 ft | 0 kts | 22° |
| 2026-04-28 10:56 | 38.77758 | -9.13563 | 360 ft | 6 kts | 22° |
| 2026-04-28 10:56 | 38.77835 | -9.13521 | 358 ft | 19 kts | 23° |
| 2026-04-28 10:56 | 38.77971 | -9.13448 | 362 ft | 21 kts | 23° |
| 2026-04-28 10:57 | 38.78106 | -9.13377 | 364 ft | 21 kts | 22° |
| 2026-04-28 10:57 | 38.78237 | -9.13307 | 362 ft | 20 kts | 22° |
| 2026-04-28 10:57 | 38.78365 | -9.13241 | 362 ft | 20 kts | 21° |
| 2026-04-28 10:57 | 38.78491 | -9.13234 | 361 ft | 17 kts | 341° |
| 2026-04-28 10:58 | 38.78511 | -9.13248 | 367 ft | 1 kts | 328° |
| 2026-04-28 10:58 | 38.78537 | -9.13287 | 360 ft | 11 kts | 298° |
| 2026-04-28 10:58 | 38.78548 | -9.13368 | 361 ft | 6 kts | 217° |
| 2026-04-28 10:58 | 38.78524 | -9.13383 | 361 ft | 0 kts | 203° |
| 2026-04-28 10:59 | 38.78514 | -9.13389 | 361 ft | 14 kts | 203° |
| 2026-04-28 10:59 | 38.78200 | -9.13556 | 371 ft | 82 kts | 202° |
| 2026-04-28 11:00 | 38.77476 | -9.13945 | 366 ft | 140 kts | 202° |
| 2026-04-28 11:00 | 38.76426 | -9.14507 | 432 ft | 177 kts | 203° |
| 2026-04-28 11:00 | 38.75308 | -9.15106 | 1087 ft | 173 kts | 202° |
| 2026-04-28 11:00 | 38.74193 | -9.15698 | 1647 ft | 177 kts | 202° |
| 2026-04-28 11:01 | 38.72989 | -9.16337 | 1810 ft | 198 kts | 202° |
| 2026-04-28 11:01 | 38.71645 | -9.17052 | 1960 ft | 219 kts | 202° |
| 2026-04-28 11:01 | 38.70180 | -9.17834 | 2090 ft | 243 kts | 203° |
| 2026-04-28 11:01 | 38.68560 | -9.18700 | 2467 ft | 258 kts | 203° |
| 2026-04-28 11:02 | 38.66885 | -9.19600 | 3118 ft | 263 kts | 205° |
| 2026-04-28 11:02 | 38.65424 | -9.20978 | 3729 ft | 265 kts | 236° |
| 2026-04-28 11:02 | 38.64816 | -9.23195 | 4343 ft | 267 kts | 271° |
| 2026-04-28 11:02 | 38.65196 | -9.25515 | 4990 ft | 269 kts | 290° |
| 2026-04-28 11:03 | 38.65891 | -9.27723 | 5616 ft | 273 kts | 296° |
| 2026-04-28 11:03 | 38.67028 | -9.29653 | 6227 ft | 276 kts | 322° |
| 2026-04-28 11:03 | 38.68711 | -9.30835 | 6795 ft | 278 kts | 343° |
| 2026-04-28 11:03 | 38.70634 | -9.31113 | 7373 ft | 281 kts | 7° |
| 2026-04-28 11:04 | 38.72502 | -9.30350 | 7968 ft | 284 kts | 32° |
| 2026-04-28 11:04 | 38.74168 | -9.28955 | 8578 ft | 287 kts | 34° |
| 2026-04-28 11:04 | 38.75813 | -9.27545 | 9193 ft | 290 kts | 34° |
| 2026-04-28 11:04 | 38.77500 | -9.26098 | 9819 ft | 294 kts | 34° |
| 2026-04-28 11:05 | 38.79212 | -9.24631 | 10386 ft | 298 kts | 34° |
| 2026-04-28 11:05 | 38.80993 | -9.23109 | 10509 ft | 319 kts | 34° |
| 2026-04-28 11:05 | 38.82898 | -9.21480 | 10642 ft | 338 kts | 34° |
| 2026-04-28 11:05 | 38.84864 | -9.19676 | 10764 ft | 357 kts | 41° |
| 2026-04-28 11:06 | 38.86637 | -9.17347 | 10890 ft | 373 kts | 49° |
| 2026-04-28 11:06 | 38.88400 | -9.14800 | 11096 ft | 387 kts | 49° |
| 2026-04-28 11:06 | 38.90207 | -9.12196 | 11561 ft | 392 kts | 49° |
| 2026-04-28 11:06 | 38.92035 | -9.09564 | 12099 ft | 396 kts | 49° |
| 2026-04-28 11:07 | 38.93854 | -9.06945 | 12630 ft | 400 kts | 49° |
| 2026-04-28 11:07 | 38.95715 | -9.04263 | 13189 ft | 403 kts | 49° |
| 2026-04-28 11:07 | 38.97592 | -9.01556 | 13743 ft | 406 kts | 49° |
| 2026-04-28 11:07 | 38.99479 | -8.98829 | 14236 ft | 410 kts | 49° |
| 2026-04-28 11:08 | 39.01381 | -8.96080 | 14740 ft | 413 kts | 49° |
| 2026-04-28 11:08 | 39.03303 | -8.93296 | 15254 ft | 416 kts | 50° |
| 2026-04-28 11:08 | 39.05235 | -8.90498 | 15754 ft | 419 kts | 50° |
| 2026-04-28 11:08 | 39.07155 | -8.87711 | 16250 ft | 423 kts | 50° |
| 2026-04-28 11:09 | 39.09114 | -8.84862 | 16724 ft | 426 kts | 50° |
| 2026-04-28 11:09 | 39.11089 | -8.81985 | 17184 ft | 429 kts | 50° |
| 2026-04-28 11:09 | 39.13074 | -8.79094 | 17646 ft | 432 kts | 50° |
| 2026-04-28 11:09 | 39.15078 | -8.76175 | 18087 ft | 435 kts | 50° |
| 2026-04-28 11:10 | 39.17067 | -8.73279 | 18467 ft | 438 kts | 50° |
| 2026-04-28 11:10 | 39.19096 | -8.70319 | 18846 ft | 440 kts | 50° |
| 2026-04-28 11:10 | 39.21126 | -8.67352 | 19252 ft | 442 kts | 50° |
| 2026-04-28 11:10 | 39.23166 | -8.64365 | 19634 ft | 444 kts | 50° |
| 2026-04-28 11:11 | 39.25214 | -8.61367 | 19999 ft | 447 kts | 50° |
| 2026-04-28 11:11 | 39.27282 | -8.58336 | 20368 ft | 450 kts | 50° |
| 2026-04-28 11:11 | 39.29353 | -8.55297 | 20732 ft | 452 kts | 50° |
| 2026-04-28 11:11 | 39.31434 | -8.52235 | 21086 ft | 455 kts | 50° |
| 2026-04-28 11:12 | 39.33523 | -8.49156 | 21435 ft | 457 kts | 50° |
| 2026-04-28 11:12 | 39.35628 | -8.46050 | 21774 ft | 460 kts | 50° |
| 2026-04-28 11:12 | 39.37717 | -8.42964 | 22094 ft | 463 kts | 50° |
| 2026-04-28 11:12 | 39.39846 | -8.39822 | 22421 ft | 465 kts | 50° |
| 2026-04-28 11:13 | 39.41985 | -8.36658 | 22762 ft | 468 kts | 50° |
| 2026-04-28 11:13 | 39.44133 | -8.33477 | 23076 ft | 470 kts | 50° |
| 2026-04-28 11:13 | 39.46296 | -8.30270 | 23373 ft | 473 kts | 50° |
| 2026-04-28 11:13 | 39.48445 | -8.27086 | 23640 ft | 476 kts | 50° |
| 2026-04-28 11:14 | 39.50633 | -8.23846 | 23899 ft | 478 kts | 50° |
| 2026-04-28 11:14 | 39.52826 | -8.20597 | 24167 ft | 481 kts | 50° |
| 2026-04-28 11:14 | 39.55036 | -8.17313 | 24427 ft | 483 kts | 50° |
| 2026-04-28 11:14 | 39.57249 | -8.14016 | 24703 ft | 485 kts | 50° |
| 2026-04-28 11:15 | 39.59470 | -8.10700 | 24967 ft | 487 kts | 50° |
| 2026-04-28 11:15 | 39.61699 | -8.07369 | 25243 ft | 489 kts | 50° |
| 2026-04-28 11:15 | 39.63902 | -8.04074 | 25619 ft | 489 kts | 50° |
| 2026-04-28 11:15 | 39.66129 | -8.00748 | 26012 ft | 488 kts | 50° |
| 2026-04-28 11:16 | 39.68397 | -7.97446 | 26385 ft | 488 kts | 49° |
| 2026-04-28 11:16 | 39.70694 | -7.94199 | 26753 ft | 488 kts | 48° |
| 2026-04-28 11:16 | 39.73016 | -7.90977 | 27117 ft | 488 kts | 48° |
| 2026-04-28 11:16 | 39.75349 | -7.87759 | 27484 ft | 488 kts | 48° |